Time;durP1;ratioP1;P1;durP2;ratioP2;P2;SDS_P1;SDS_P2;PMS_P1;PMS_P2;Temp;Humidity;BMP_temperature;BMP_pressure;BME280_temperature;BME280_humidity;BME280_pressure;Samples;Min_cycle;Max_cycle;Signal;HPM_P1;HPM_P2
2021/06/09 00:00:09;;;;;;;3.95;2.58;;;15.10;99.90;;;;;;5055947;28;20542;-72
2021/06/09 00:02:36;;;;;;;3.00;2.70;;;15.10;99.90;;;;;;5056317;28;20029;-72
2021/06/09 00:05:03;;;;;;;4.90;2.85;;;15.10;99.90;;;;;;5056480;28;20049;-72
2021/06/09 00:07:29;;;;;;;2.63;2.42;;;15.10;99.90;;;;;;5056002;28;20057;-72
2021/06/09 00:09:55;;;;;;;3.20;2.90;;;15.10;99.90;;;;;;5056174;28;20546;-72
2021/06/09 00:12:20;;;;;;;4.63;3.30;;;15.00;99.90;;;;;;5055941;28;20110;-72
2021/06/09 00:14:46;;;;;;;3.55;2.97;;;14.90;99.90;;;;;;5055771;28;20124;-72
2021/06/09 00:17:12;;;;;;;5.43;3.10;;;14.90;99.90;;;;;;5055664;28;20044;-72
2021/06/09 00:19:38;;;;;;;3.38;2.80;;;14.90;99.90;;;;;;5055932;28;20045;-72
2021/06/09 00:22:04;;;;;;;4.00;2.80;;;14.90;99.90;;;;;;5055641;28;20095;-72
2021/06/09 00:24:31;;;;;;;5.00;2.58;;;14.90;99.90;;;;;;5055430;28;20037;-72
2021/06/09 00:26:57;;;;;;;3.45;2.83;;;14.90;99.90;;;;;;5055741;28;20095;-72
2021/06/09 00:29:23;;;;;;;3.80;2.63;;;14.90;99.90;;;;;;5055725;28;20484;-72
2021/06/09 00:31:49;;;;;;;3.83;3.28;;;14.80;99.90;;;;;;5055417;28;20127;-72
2021/06/09 00:34:16;;;;;;;3.97;2.80;;;14.80;99.90;;;;;;5055715;28;20044;-72
2021/06/09 00:36:42;;;;;;;3.13;2.67;;;14.80;99.90;;;;;;5055771;28;20071;-72
2021/06/09 00:39:08;;;;;;;4.95;2.85;;;14.70;99.90;;;;;;5055272;28;20029;-72
2021/06/09 00:41:36;;;;;;;3.47;3.05;;;14.60;99.90;;;;;;5054494;28;20506;-72
2021/06/09 00:44:04;;;;;;;3.38;2.67;;;14.60;99.90;;;;;;5055213;28;20394;-72
2021/06/09 00:46:39;;;;;;;3.58;3.10;;;14.60;99.90;;;;;;5055498;28;20053;-72
2021/06/09 00:49:07;;;;;;;8.45;3.22;;;14.50;99.90;;;;;;5055380;28;20496;-72
2021/06/09 00:51:34;;;;;;;3.30;3.00;;;14.40;99.90;;;;;;5055284;28;20039;-72
2021/06/09 00:54:09;;;;;;;4.18;2.83;;;14.40;99.90;;;;;;5055308;28;20495;-72
2021/06/09 00:56:37;;;;;;;4.28;2.90;;;14.50;99.90;;;;;;5055289;28;20072;-72
2021/06/09 00:59:04;;;;;;;4.75;2.75;;;14.30;99.90;;;;;;5037828;28;20453;-72
2021/06/09 01:01:31;;;;;;;4.22;3.30;;;14.40;99.90;;;;;;5055177;28;20043;-72
2021/06/09 01:03:58;;;;;;;3.80;3.30;;;14.40;99.90;;;;;;5055050;28;20040;-72
2021/06/09 01:06:24;;;;;;;3.80;3.38;;;14.30;99.90;;;;;;5055132;28;20071;-72
2021/06/09 01:08:52;;;;;;;3.45;3.10;;;14.30;99.90;;;;;;5055415;28;20033;-72
2021/06/09 01:11:21;;;;;;;4.45;3.13;;;14.30;99.90;;;;;;5055259;28;20472;-72
2021/06/09 01:13:48;;;;;;;4.03;3.15;;;14.20;99.90;;;;;;5055251;28;20033;-72
2021/06/09 01:16:14;;;;;;;3.80;3.40;;;14.10;99.90;;;;;;5055428;28;20511;-72
2021/06/09 01:18:40;;;;;;;4.43;3.10;;;14.10;99.90;;;;;;5055225;28;20063;-72
2021/06/09 01:21:07;;;;;;;3.47;3.17;;;14.00;99.90;;;;;;5055030;28;20032;-72
2021/06/09 01:23:34;;;;;;;3.20;2.90;;;13.90;99.90;;;;;;5055083;28;20091;-72
2021/06/09 01:26:01;;;;;;;3.30;2.97;;;14.00;99.90;;;;;;5054803;28;20049;-72
2021/06/09 01:28:27;;;;;;;3.92;3.20;;;14.00;99.90;;;;;;5037115;28;20041;-72
2021/06/09 01:30:55;;;;;;;2.85;2.65;;;14.00;99.90;;;;;;5054964;28;20041;-72
2021/06/09 01:33:22;;;;;;;4.47;3.45;;;14.00;99.90;;;;;;5054596;28;20060;-72
2021/06/09 01:35:52;;;;;;;3.85;3.03;;;14.00;99.90;;;;;;5055387;28;20048;-72
2021/06/09 01:38:19;;;;;;;6.43;3.03;;;13.90;99.90;;;;;;5055498;28;20033;-72
2021/06/09 01:40:45;;;;;;;5.07;3.30;;;14.00;99.90;;;;;;5054689;28;20041;-72
2021/06/09 01:43:11;;;;;;;3.33;3.03;;;13.90;99.90;;;;;;5054824;28;20554;-72
2021/06/09 01:45:38;;;;;;;4.15;3.10;;;13.90;99.90;;;;;;5054725;28;20037;-72
2021/06/09 01:48:06;;;;;;;4.10;3.20;;;13.90;99.90;;;;;;5054814;28;20037;-72
2021/06/09 01:50:33;;;;;;;4.43;3.20;;;13.80;99.90;;;;;;5055121;28;20044;-72
2021/06/09 01:53:05;;;;;;;3.60;3.30;;;13.80;99.90;;;;;;5054492;28;20033;-72
2021/06/09 01:55:33;;;;;;;3.72;2.92;;;13.70;99.90;;;;;;5054168;28;20037;-72
2021/06/09 01:58:00;;;;;;;3.42;3.13;;;13.70;99.90;;;;;;5054697;28;20040;-72
2021/06/09 02:00:33;;;;;;;3.40;3.10;;;13.70;99.90;;;;;;5055169;28;20472;-72
2021/06/09 02:02:59;;;;;;;6.65;3.17;;;13.70;99.90;;;;;;5054965;28;20119;-72
2021/06/09 02:05:31;;;;;;;4.25;3.33;;;13.70;99.90;;;;;;5054498;28;20045;-72
2021/06/09 02:07:59;;;;;;;3.83;3.25;;;13.70;99.90;;;;;;5054369;28;20045;-72
2021/06/09 02:10:26;;;;;;;4.80;3.17;;;13.70;99.90;;;;;;5054384;28;20037;-72
2021/06/09 02:12:58;;;;;;;5.70;3.50;;;13.60;99.90;;;;;;5054563;28;20057;-72
2021/06/09 02:15:24;;;;;;;3.45;3.15;;;13.60;99.90;;;;;;5054683;28;20048;-72
2021/06/09 02:18:16;;;;;;;6.45;3.42;;;13.50;99.90;;;;;;5055049;28;20110;-72
2021/06/09 02:20:51;;;;;;;4.15;3.42;;;13.50;99.90;;;;;;5054494;28;20067;-72
2021/06/09 02:23:20;;;;;;;5.82;3.22;;;13.50;99.90;;;;;;5054446;28;20064;-72
2021/06/09 02:25:52;;;;;;;3.75;3.45;;;13.50;99.90;;;;;;5054167;28;20107;-72
2021/06/09 02:28:19;;;;;;;3.65;3.35;;;13.40;99.90;;;;;;5054545;28;20132;-72
2021/06/09 02:30:46;;;;;;;5.20;3.40;;;13.40;99.90;;;;;;5054071;28;20045;-72
2021/06/09 02:33:14;;;;;;;3.53;2.95;;;13.40;99.90;;;;;;5054343;28;20188;-72
2021/06/09 02:35:42;;;;;;;6.25;3.30;;;13.30;99.90;;;;;;5054140;28;20047;-72
2021/06/09 02:38:10;;;;;;;5.18;3.40;;;13.40;99.90;;;;;;5054120;28;20037;-72
2021/06/09 02:40:38;;;;;;;3.50;3.30;;;13.30;99.90;;;;;;5054004;28;20041;-72
2021/06/09 02:43:05;;;;;;;3.65;3.35;;;13.30;99.90;;;;;;5054567;28;20033;-72
2021/06/09 02:45:31;;;;;;;4.72;3.35;;;13.20;99.90;;;;;;5054671;28;20053;-72
2021/06/09 02:48:03;;;;;;;4.85;3.53;;;13.30;99.90;;;;;;5054497;28;20147;-72
2021/06/09 02:50:29;;;;;;;4.43;3.78;;;13.30;99.90;;;;;;5054469;28;20041;-72
2021/06/09 02:53:18;;;;;;;5.95;3.92;;;13.10;99.90;;;;;;5054217;28;20400;-72
2021/06/09 02:56:35;;;;;;;4.15;3.45;;;13.20;99.90;;;;;;5053885;28;20048;-72
2021/06/09 02:59:42;;;;;;;4.82;3.45;;;13.20;99.90;;;;;;5011668;28;20069;-72
2021/06/09 03:02:16;;;;;;;4.05;3.70;;;13.10;99.90;;;;;;5045428;28;20033;-72
2021/06/09 03:04:48;;;;;;;3.78;3.42;;;13.10;99.90;;;;;;5054457;28;20041;-72
2021/06/09 03:07:23;;;;;;;3.78;3.47;;;13.00;99.90;;;;;;5057647;28;20064;-72
2021/06/09 03:10:24;;;;;;;3.80;3.45;;;13.00;99.90;;;;;;5057337;28;20043;-72
2021/06/09 03:12:53;;;;;;;3.75;3.45;;;13.00;99.90;;;;;;5057282;28;20045;-72
2021/06/09 03:15:28;;;;;;;3.97;3.58;;;13.10;99.90;;;;;;5056894;28;20110;-72
2021/06/09 03:17:53;;;;;;;3.80;3.50;;;12.90;99.90;;;;;;5057181;28;20191;-72
2021/06/09 03:20:43;;;;;;;3.83;3.53;;;12.90;99.90;;;;;;5057053;28;20500;-72
2021/06/09 03:23:20;;;;;;;4.35;3.50;;;12.90;99.90;;;;;;5057457;28;20526;-72
2021/06/09 03:26:08;;;;;;;5.18;3.60;;;12.90;99.90;;;;;;5057014;28;20098;-72
2021/06/09 03:28:51;;;;;;;4.50;3.70;;;12.90;99.90;;;;;;5057027;28;20044;-72
2021/06/09 03:31:24;;;;;;;3.80;3.50;;;12.80;99.90;;;;;;5056965;28;20040;-72
2021/06/09 03:33:52;;;;;;;4.43;3.63;;;12.90;99.90;;;;;;5057232;28;20037;-72
2021/06/09 03:36:29;;;;;;;3.53;3.17;;;13.00;99.90;;;;;;5057233;28;20041;-72
2021/06/09 03:39:06;;;;;;;4.38;3.67;;;13.00;99.90;;;;;;5056602;28;20565;-72
2021/06/09 03:41:37;;;;;;;3.70;3.40;;;12.90;99.90;;;;;;5056186;28;20059;-72
2021/06/09 03:44:05;;;;;;;4.50;3.33;;;12.80;99.90;;;;;;5056799;28;20043;-72
2021/06/09 03:46:32;;;;;;;3.28;2.97;;;12.80;99.90;;;;;;5056500;28;20064;-72
2021/06/09 03:48:59;;;;;;;4.07;3.75;;;12.80;99.90;;;;;;5056610;28;20036;-72
2021/06/09 03:51:29;;;;;;;6.65;3.50;;;12.80;99.90;;;;;;5056535;28;20132;-72
2021/06/09 03:53:58;;;;;;;4.70;3.53;;;12.90;99.90;;;;;;5056739;28;20059;-72
2021/06/09 03:56:27;;;;;;;4.55;3.63;;;12.80;99.90;;;;;;5056549;28;20094;-72
2021/06/09 03:58:55;;;;;;;4.88;4.18;;;12.80;99.90;;;;;;5056094;28;20122;-72
2021/06/09 04:01:21;;;;;;;3.85;3.28;;;12.90;99.90;;;;;;5056372;28;20052;-72
2021/06/09 04:03:49;;;;;;;6.03;3.60;;;12.90;99.90;;;;;;5056898;28;20112;-72
2021/06/09 04:06:17;;;;;;;5.45;3.30;;;12.90;99.90;;;;;;5056366;28;20215;-72
2021/06/09 04:08:44;;;;;;;4.28;3.40;;;13.00;99.90;;;;;;5056484;28;20030;-72
2021/06/09 04:11:14;;;;;;;4.68;4.05;;;12.90;99.90;;;;;;5056422;28;20041;-72
2021/06/09 04:13:41;;;;;;;3.83;3.40;;;13.00;99.90;;;;;;5056695;28;20037;-72
2021/06/09 04:16:08;;;;;;;5.30;3.75;;;12.90;99.90;;;;;;5056433;28;20052;-72
2021/06/09 04:18:36;;;;;;;3.97;3.63;;;13.00;99.90;;;;;;5056253;28;20028;-72
2021/06/09 04:21:04;;;;;;;6.45;3.72;;;13.00;99.90;;;;;;5056290;28;20083;-72
2021/06/09 04:23:30;;;;;;;3.97;3.60;;;13.20;99.90;;;;;;5055931;28;20110;-72
2021/06/09 04:26:00;;;;;;;11.00;3.60;;;13.10;99.90;;;;;;5056205;28;20040;-72
2021/06/09 04:28:26;;;;;;;4.50;3.60;;;13.20;99.90;;;;;;5055740;28;20037;-72
2021/06/09 04:30:52;;;;;;;4.82;3.55;;;13.30;99.90;;;;;;5055925;28;20045;-72
2021/06/09 04:33:18;;;;;;;5.63;3.53;;;13.50;99.90;;;;;;5056582;28;20064;-72
2021/06/09 04:35:46;;;;;;;3.50;3.20;;;13.40;99.90;;;;;;5056307;28;20041;-72
2021/06/09 04:38:14;;;;;;;5.57;3.35;;;13.50;99.90;;;;;;5055972;28;20123;-72
2021/06/09 04:40:40;;;;;;;4.10;3.50;;;13.60;99.90;;;;;;5055288;28;20127;-72
2021/06/09 04:43:07;;;;;;;4.18;3.40;;;13.60;99.90;;;;;;5055568;28;20491;-72
2021/06/09 04:45:33;;;;;;;5.45;3.63;;;13.70;99.90;;;;;;5055621;28;20052;-72
2021/06/09 04:47:59;;;;;;;5.18;3.80;;;13.60;99.90;;;;;;5055784;28;20044;-72
2021/06/09 04:50:27;;;;;;;4.40;3.65;;;13.70;99.90;;;;;;5055426;28;20047;-72
2021/06/09 04:52:54;;;;;;;3.83;3.53;;;13.70;99.90;;;;;;5037850;28;20041;-72
2021/06/09 04:55:20;;;;;;;7.88;4.57;;;13.80;99.90;;;;;;5055995;28;20048;-72
2021/06/09 04:57:47;;;;;;;4.57;3.75;;;13.90;99.90;;;;;;5055402;28;20082;-72
2021/06/09 05:00:15;;;;;;;6.55;3.72;;;13.90;99.90;;;;;;5055584;28;20071;-72
2021/06/09 05:02:42;;;;;;;9.45;4.10;;;13.90;99.90;;;;;;5055476;28;20124;-72
2021/06/09 05:05:09;;;;;;;3.78;3.47;;;13.90;99.90;;;;;;5055006;28;20058;-72
2021/06/09 05:07:35;;;;;;;5.57;3.88;;;13.90;99.90;;;;;;5055529;28;20477;-72
2021/06/09 05:10:01;;;;;;;7.28;4.05;;;13.90;99.90;;;;;;5054923;28;20163;-72
2021/06/09 05:12:29;;;;;;;6.05;3.58;;;14.00;99.90;;;;;;5055011;28;20095;-72
2021/06/09 05:15:04;;;;;;;3.30;3.00;;;14.20;99.90;;;;;;5055329;28;20038;-72
2021/06/09 05:17:33;;;;;;;9.75;7.50;;;14.50;99.90;;;;;;5054596;28;20090;-72
2021/06/09 05:20:00;;;;;;;5.10;3.60;;;14.90;99.90;;;;;;5054602;28;20420;-72
2021/06/09 05:22:37;;;;;;;4.93;4.40;;;14.80;99.90;;;;;;5054817;28;20041;-72
2021/06/09 05:25:07;;;;;;;5.60;4.35;;;14.80;99.90;;;;;;5054949;28;20049;-72
2021/06/09 05:27:35;;;;;;;4.13;3.53;;;14.90;99.90;;;;;;5054377;28;20051;-72
2021/06/09 05:30:03;;;;;;;6.68;3.55;;;15.10;99.90;;;;;;5054730;28;20484;-72
2021/06/09 05:32:30;;;;;;;9.73;6.15;;;15.20;99.90;;;;;;5054606;28;20036;-72
2021/06/09 05:34:58;;;;;;;17.73;10.90;;;15.70;99.90;;;;;;5054986;28;20155;-72
2021/06/09 05:37:24;;;;;;;11.63;8.45;;;17.10;99.90;;;;;;5054533;28;20083;-72
2021/06/09 05:39:54;;;;;;;13.40;8.32;;;17.90;99.90;;;;;;5054963;28;20517;-72
2021/06/09 05:42:20;;;;;;;14.43;10.18;;;18.60;99.90;;;;;;5054323;28;20039;-71
2021/06/09 05:44:53;;;;;;;14.85;7.30;;;20.90;95.60;;;;;;5039242;28;20060;-72
2021/06/09 05:47:19;;;;;;;5.60;2.78;;;22.80;89.00;;;;;;5050355;28;20044;-72
2021/06/09 05:49:45;;;;;;;7.57;5.15;;;22.70;87.90;;;;;;5054017;28;20040;-72
2021/06/09 05:52:12;;;;;;;3.42;2.35;;;21.90;90.00;;;;;;5054022;28;20041;-72
2021/06/09 05:54:42;;;;;;;6.03;3.38;;;22.80;86.90;;;;;;5054308;28;20037;-72
2021/06/09 05:57:12;;;;;;;3.15;1.88;;;25.80;41.70;;;;;;5053956;28;20435;-73
2021/06/09 05:59:40;;;;;;;1.83;1.65;;;27.90;18.90;;;;;;5053391;28;20082;-73
2021/06/09 06:02:06;;;;;;;2.20;1.85;;;28.10;13.70;;;;;;5052513;28;20627;-73
2021/06/09 06:04:33;;;;;;;1.85;1.75;;;28.00;13.50;;;;;;5053153;28;20096;-72
2021/06/09 06:06:59;;;;;;;1.65;1.55;;;28.30;14.20;;;;;;5052397;28;20071;-73
2021/06/09 06:09:25;;;;;;;1.80;1.63;;;29.50;10.30;;;;;;5052489;28;20109;-72
2021/06/09 06:11:52;;;;;;;2.80;1.92;;;30.20;7.30;;;;;;5054090;28;20508;-72
2021/06/09 06:14:22;;;;;;;3.55;1.42;;;31.20;6.10;;;;;;5053015;28;20041;-73
2021/06/09 06:16:56;;;;;;;2.70;1.50;;;31.00;3.50;;;;;;5053516;28;20132;-72
2021/06/09 06:19:32;;;;;;;1.70;1.52;;;30.30;3.90;;;;;;5054476;28;20481;-72
2021/06/09 06:21:58;;;;;;;4.28;1.70;;;30.80;4.00;;;;;;5054180;28;20087;-73
2021/06/09 06:24:24;;;;;;;2.05;1.45;;;29.80;5.60;;;;;;5054164;28;20542;-73
2021/06/09 06:26:50;;;;;;;2.38;1.67;;;31.30;4.90;;;;;;5053981;28;20049;-73
2021/06/09 06:29:16;;;;;;;1.40;1.30;;;30.40;3.30;;;;;;5054085;28;20353;-72
2021/06/09 06:31:42;;;;;;;2.33;1.35;;;31.80;1.80;;;;;;5053708;28;20036;-72
2021/06/09 06:34:10;;;;;;;2.35;1.42;;;32.00;2.00;;;;;;5053937;28;20491;-72
2021/06/09 06:36:38;;;;;;;3.65;1.35;;;31.90;1.20;;;;;;5053600;28;20119;-72
2021/06/09 06:39:05;;;;;;;2.05;1.80;;;31.10;1.40;;;;;;5053221;28;20115;-72
2021/06/09 06:41:32;;;;;;;3.25;1.70;;;31.00;3.60;;;;;;5056958;28;20496;-73
2021/06/09 06:43:58;;;;;;;2.22;1.50;;;29.00;6.30;;;;;;5057279;28;20049;-72
2021/06/09 06:46:25;;;;;;;4.63;1.75;;;29.40;8.20;;;;;;5057261;28;20052;-73
2021/06/09 06:48:54;;;;;;;1.70;1.60;;;30.20;5.90;;;;;;5039631;28;20439;-73
2021/06/09 06:51:22;;;;;;;1.60;1.48;;;31.20;4.60;;;;;;5050264;28;20114;-72
2021/06/09 06:53:50;;;;;;;2.75;1.50;;;31.20;4.50;;;;;;5057258;28;20052;-72
2021/06/09 06:56:18;;;;;;;1.75;1.65;;;32.20;2.50;;;;;;5057308;28;20053;-73
2021/06/09 06:58:50;;;;;;;2.15;1.70;;;32.60;1.00;;;;;;5057051;28;20118;-72
2021/06/09 07:01:29;;;;;;;2.25;1.48;;;33.20;1.20;;;;;;5055682;28;20049;-73
2021/06/09 07:03:56;;;;;;;2.55;1.73;;;32.80;1.00;;;;;;5057122;28;20064;-72
2021/06/09 07:06:22;;;;;;;3.65;1.58;;;32.50;1.30;;;;;;5056855;28;20539;-73
2021/06/09 07:08:49;;;;;;;1.52;1.42;;;33.20;1.00;;;;;;5055528;28;20036;-73
2021/06/09 07:11:16;;;;;;;2.85;1.50;;;31.50;1.00;;;;;;5055569;28;20063;-72
2021/06/09 07:13:47;;;;;;;1.70;1.60;;;33.20;1.20;;;;;;5056358;28;20068;-72
2021/06/09 07:16:15;;;;;;;1.50;1.40;;;32.30;1.00;;;;;;5056533;28;20044;-73
2021/06/09 07:18:45;;;;;;;1.52;1.42;;;33.50;1.00;;;;;;5057046;28;20036;-72
2021/06/09 07:21:17;;;;;;;1.73;1.50;;;33.10;1.00;;;;;;5056738;28;20043;-72
2021/06/09 07:23:44;;;;;;;3.58;1.80;;;33.10;1.00;;;;;;5056723;28;20043;-72
2021/06/09 07:26:11;;;;;;;1.60;1.50;;;31.20;1.60;;;;;;5055798;28;20079;-71
2021/06/09 07:28:44;;;;;;;2.28;1.73;;;32.40;2.70;;;;;;5056493;28;20048;-72
2021/06/09 07:31:10;;;;;;;2.90;1.80;;;32.90;1.20;;;;;;5056127;28;20047;-73
2021/06/09 07:33:36;;;;;;;3.42;2.80;;;33.20;1.00;;;;;;5056338;28;20041;-73
2021/06/09 07:36:06;;;;;;;3.97;2.30;;;32.90;1.40;;;;;;5056562;28;20393;-72
2021/06/09 07:38:38;;;;;;;2.55;1.85;;;32.20;1.50;;;;;;5054895;28;20044;-72
2021/06/09 07:41:07;;;;;;;2.50;1.45;;;33.30;1.00;;;;;;5054445;28;20041;-72
2021/06/09 07:43:38;;;;;;;3.05;2.00;;;34.00;1.00;;;;;;5052065;28;20088;-73
2021/06/09 07:46:09;;;;;;;3.55;2.00;;;33.70;1.00;;;;;;5051876;28;20053;-73
2021/06/09 07:48:36;;;;;;;2.15;1.55;;;33.40;1.00;;;;;;5052355;28;20083;-72
2021/06/09 07:51:08;;;;;;;2.90;1.67;;;33.00;1.00;;;;;;5052436;28;20044;-73
2021/06/09 07:53:36;;;;;;;2.42;1.90;;;31.10;3.80;;;;;;5053630;28;20037;-73
2021/06/09 07:56:03;;;;;;;3.80;1.90;;;28.70;9.30;;;;;;5053847;28;20520;-72
2021/06/09 07:58:32;;;;;;;2.83;1.85;;;26.70;26.50;;;;;;5054266;28;20040;-72
2021/06/09 08:01:00;;;;;;;2.65;1.90;;;25.80;39.40;;;;;;5053072;28;20126;-73
2021/06/09 08:03:29;;;;;;;2.47;1.65;;;25.10;44.60;;;;;;5052952;28;20045;-72
2021/06/09 08:05:58;;;;;;;3.92;2.70;;;24.60;55.90;;;;;;5053241;28;20060;-72
2021/06/09 08:08:25;;;;;;;1.63;1.52;;;24.60;68.10;;;;;;5054977;28;20095;-72
2021/06/09 08:10:51;;;;;;;1.90;1.70;;;24.40;72.40;;;;;;5055362;28;20070;-72
2021/06/09 08:13:17;;;;;;;1.92;1.80;;;24.40;60.40;;;;;;5056003;28;20037;-72
2021/06/09 08:15:44;;;;;;;2.65;1.80;;;24.20;68.50;;;;;;5054600;28;20044;-72
2021/06/09 08:18:12;;;;;;;3.75;1.92;;;24.10;78.20;;;;;;5051401;28;20041;-73
2021/06/09 08:21:01;;;;;;;4.65;2.13;;;23.90;77.50;;;;;;5052371;28;20076;-70
2021/06/09 08:23:27;;;;;;;2.45;2.03;;;23.80;83.30;;;;;;5052652;28;20047;-70
2021/06/09 08:25:53;;;;;;;3.47;1.70;;;23.70;81.60;;;;;;5053225;28;20045;-69
2021/06/09 08:28:19;;;;;;;3.78;1.75;;;23.90;73.70;;;;;;5054665;28;20068;-70
2021/06/09 08:30:45;;;;;;;1.83;1.60;;;23.90;75.60;;;;;;5037879;28;20408;-69
2021/06/09 08:33:10;;;;;;;2.35;1.75;;;23.90;72.60;;;;;;5056097;28;20440;-70
2021/06/09 08:35:36;;;;;;;1.90;1.48;;;23.80;50.00;;;;;;5055264;28;20056;-70
2021/06/09 08:38:02;;;;;;;1.60;1.50;;;23.80;58.00;;;;;;5056035;28;20037;-70
2021/06/09 08:40:31;;;;;;;1.85;1.33;;;23.80;60.10;;;;;;5055296;28;20044;-69
2021/06/09 08:42:57;;;;;;;2.90;1.42;;;23.80;35.40;;;;;;5056022;28;20060;-70
2021/06/09 08:45:24;;;;;;;3.33;1.50;;;23.90;50.70;;;;;;5055696;28;20549;-69
2021/06/09 08:47:51;;;;;;;3.20;1.60;;;24.00;40.50;;;;;;5053708;28;20061;-69
2021/06/09 08:50:18;;;;;;;1.92;1.50;;;24.00;51.80;;;;;;5055857;28;20037;-69
2021/06/09 08:52:50;;;;;;;2.00;1.90;;;23.90;34.20;;;;;;5054820;28;20119;-69
2021/06/09 08:55:17;;;;;;;3.63;2.03;;;23.90;56.60;;;;;;5055711;28;20048;-69
2021/06/09 08:57:43;;;;;;;2.88;1.50;;;24.00;62.30;;;;;;5055213;28;20072;-70
2021/06/09 09:00:11;;;;;;;2.13;1.42;;;24.10;65.80;;;;;;5055330;28;20041;-69
2021/06/09 09:02:41;;;;;;;2.13;1.23;;;24.00;29.00;;;;;;5054454;28;20167;-70
2021/06/09 09:05:08;;;;;;;1.58;1.48;;;23.90;33.00;;;;;;5055786;28;20041;-69
2021/06/09 09:07:35;;;;;;;1.30;1.20;;;24.00;21.00;;;;;;5055132;28;20520;-69
2021/06/09 09:10:02;;;;;;;1.30;1.20;;;23.90;20.50;;;;;;5055148;28;20040;-71
2021/06/09 09:12:28;;;;;;;1.20;1.10;;;23.90;22.50;;;;;;5037440;28;20037;-69
2021/06/09 09:14:54;;;;;;;6.03;1.50;;;23.90;30.60;;;;;;5055691;28;20051;-70
2021/06/09 09:17:20;;;;;;;1.23;1.13;;;23.80;22.70;;;;;;5054815;28;20037;-72
2021/06/09 09:19:47;;;;;;;2.25;1.30;;;23.80;25.50;;;;;;5055318;28;20037;-73
2021/06/09 09:22:34;;;;;;;1.30;1.20;;;23.80;22.60;;;;;;5036870;28;20075;-73
2021/06/09 09:25:11;;;;;;;2.05;1.10;;;23.80;25.00;;;;;;5055394;28;20048;-73
2021/06/09 09:27:38;;;;;;;1.38;1.27;;;23.90;31.80;;;;;;5049302;28;21383;-73
2021/06/09 09:30:05;;;;;;;1.17;1.08;;;23.90;25.90;;;;;;5049221;28;20056;-73
2021/06/09 09:32:32;;;;;;;1.30;1.20;;;24.00;25.10;;;;;;5053318;28;20039;-73
2021/06/09 09:35:12;;;;;;;2.08;1.13;;;24.10;18.00;;;;;;5053919;28;20052;-73
2021/06/09 09:37:38;;;;;;;1.70;1.60;;;24.10;18.40;;;;;;5053232;28;20055;-73
2021/06/09 09:40:10;;;;;;;1.13;1.08;;;24.10;18.50;;;;;;5053857;28;20067;-73
2021/06/09 09:42:37;;;;;;;1.80;1.70;;;24.10;15.30;;;;;;5053590;28;20041;-74
2021/06/09 09:45:26;;;;;;;4.93;2.60;;;24.10;17.40;;;;;;5053341;28;20053;-74
2021/06/09 09:48:05;;;;;;;1.63;1.52;;;24.20;20.40;;;;;;5051709;28;20037;-73
2021/06/09 09:50:46;;;;;;;2.03;1.38;;;24.40;23.50;;;;;;5051564;28;20159;-74
2021/06/09 09:53:22;;;;;;;;;;;24.50;18.90;;;;;;5051671;28;20039;-74
2021/06/09 09:56:04;;;;;;;1.45;1.35;;;24.50;17.60;;;;;;5051776;28;19909;-74
2021/06/09 09:58:32;;;;;;;1.77;1.50;;;24.70;19.50;;;;;;5034116;28;20040;-74
2021/06/09 10:01:15;;;;;;;1.33;1.20;;;24.70;18.00;;;;;;5053116;28;20468;-74
2021/06/09 10:03:44;;;;;;;4.63;1.65;;;24.80;19.40;;;;;;5052823;28;20053;-74
2021/06/09 10:06:34;;;;;;;3.17;1.70;;;24.60;42.90;;;;;;5053125;28;20087;-74
2021/06/09 10:09:09;;;;;;;2.58;1.92;;;24.60;52.40;;;;;;5053390;28;20041;-74
2021/06/09 10:11:43;;;;;;;2.85;1.80;;;24.40;59.30;;;;;;5053559;28;20526;-74
2021/06/09 10:14:30;;;;;;;1.73;1.60;;;24.50;50.50;;;;;;5054875;28;20047;-74
2021/06/09 10:17:36;;;;;;;3.67;2.08;;;24.40;58.90;;;;;;5057651;28;20045;-74
2021/06/09 10:20:06;;;;;;;2.53;2.13;;;24.50;66.20;;;;;;5014782;28;20033;-73
2021/06/09 10:22:37;;;;;;;2.55;1.98;;;24.30;68.90;;;;;;5015098;28;20073;-73
2021/06/09 10:25:13;;;;;;;3.08;2.28;;;24.30;67.90;;;;;;5037575;28;20080;-73
2021/06/09 10:27:53;;;;;;;2.95;2.72;;;24.40;74.80;;;;;;5056628;28;20407;-73
2021/06/09 10:30:24;;;;;;;4.80;2.08;;;24.60;72.90;;;;;;5057810;28;20032;-72
2021/06/09 10:33:03;;;;;;;4.25;2.35;;;24.50;70.50;;;;;;5057728;28;20041;-73
2021/06/09 10:35:31;;;;;;;3.15;2.38;;;24.50;76.80;;;;;;5057539;28;20052;-73
2021/06/09 10:37:58;;;;;;;3.10;2.20;;;24.60;76.50;;;;;;5038521;28;20041;-73
2021/06/09 10:40:27;;;;;;;3.15;2.17;;;24.80;74.00;;;;;;5057224;28;20044;-73
2021/06/09 10:42:57;;;;;;;4.03;2.28;;;24.80;70.90;;;;;;5057480;28;20131;-73
2021/06/09 10:45:24;;;;;;;2.22;2.03;;;25.00;69.90;;;;;;5057608;28;20094;-73
2021/06/09 10:47:55;;;;;;;3.38;1.70;;;25.10;68.10;;;;;;5057484;28;20515;-73
2021/06/09 10:50:21;;;;;;;2.50;1.92;;;25.10;60.00;;;;;;5057649;28;20040;-73
2021/06/09 10:52:49;;;;;;;3.10;2.17;;;25.20;60.30;;;;;;5056784;28;20037;-73
2021/06/09 10:55:15;;;;;;;2.53;2.30;;;25.00;71.30;;;;;;5057148;28;20055;-73
2021/06/09 10:57:42;;;;;;;2.25;2.05;;;25.00;71.20;;;;;;5056998;28;20040;-73
2021/06/09 11:00:14;;;;;;;3.10;2.35;;;24.90;75.60;;;;;;5056695;28;20490;-73
2021/06/09 11:02:42;;;;;;;3.20;2.47;;;25.00;69.10;;;;;;5057476;28;20151;-73
2021/06/09 11:05:10;;;;;;;4.45;2.17;;;25.00;69.40;;;;;;5057349;28;20055;-73
2021/06/09 11:07:38;;;;;;;2.42;2.08;;;25.00;59.20;;;;;;5057315;28;20056;-73
2021/06/09 11:10:27;;;;;;;3.42;2.13;;;25.00;53.00;;;;;;5055844;28;20032;-73
2021/06/09 11:12:53;;;;;;;9.40;2.80;;;25.00;54.10;;;;;;5057393;28;20459;-73
2021/06/09 11:15:26;;;;;;;2.13;1.67;;;25.10;49.50;;;;;;5056306;28;20045;-73
2021/06/09 11:21:36;;;;;;;3.38;2.22;;;24.90;68.20;;;;;;5038421;28;20400;-73
2021/06/09 11:24:11;;;;;;;2.65;1.83;;;25.00;56.90;;;;;;5057508;28;20067;-73
2021/06/09 11:26:37;;;;;;;2.35;2.15;;;25.10;71.20;;;;;;5055978;28;20496;-73
2021/06/09 11:29:28;;;;;;;3.08;2.50;;;25.20;76.20;;;;;;5057381;28;20131;-73
2021/06/09 11:32:21;;;;;;;5.03;2.42;;;25.20;80.90;;;;;;5057061;28;20370;-73
2021/06/09 11:34:58;;;;;;;2.40;2.20;;;25.40;79.70;;;;;;5056869;28;20043;-73
2021/06/09 11:37:24;;;;;;;2.13;1.90;;;25.50;68.50;;;;;;5055879;28;20040;-72
2021/06/09 11:40:04;;;;;;;3.80;2.20;;;25.70;68.60;;;;;;5057359;28;20036;-73
2021/06/09 11:42:30;;;;;;;;;;;25.90;68.30;;;;;;5056527;28;20075;-72
2021/06/09 11:44:58;;;;;;;2.17;1.98;;;26.20;71.80;;;;;;5056678;28;19978;-73
2021/06/09 11:47:27;;;;;;;4.05;2.00;;;26.10;68.90;;;;;;5054695;28;20040;-72
2021/06/09 11:49:55;;;;;;;2.10;1.90;;;25.90;65.70;;;;;;5054075;28;20116;-72
2021/06/09 11:52:22;;;;;;;2.30;1.70;;;26.10;66.10;;;;;;5051967;28;20523;-72
2021/06/09 11:55:11;;;;;;;2.30;2.08;;;25.90;48.30;;;;;;5052717;28;20480;-72
2021/06/09 11:57:37;;;;;;;2.80;1.52;;;25.70;58.60;;;;;;5049802;28;20067;-72
2021/06/09 12:00:07;;;;;;;2.58;1.60;;;25.80;68.40;;;;;;5050936;28;20496;-72
2021/06/09 12:02:33;;;;;;;4.07;2.30;;;25.80;53.40;;;;;;5053583;28;20041;-72
2021/06/09 12:05:01;;;;;;;2.55;1.70;;;25.80;54.90;;;;;;5053839;28;20041;-72
2021/06/09 12:07:32;;;;;;;2.00;1.77;;;26.00;53.60;;;;;;5055226;28;20041;-72
2021/06/09 12:10:02;;;;;;;3.15;1.90;;;25.80;55.00;;;;;;5054193;28;20098;-72
2021/06/09 12:12:31;;;;;;;3.45;2.40;;;25.80;58.70;;;;;;5053648;28;20041;-72
2021/06/09 12:15:00;;;;;;;4.03;2.00;;;25.60;68.40;;;;;;5055543;28;20083;-72
2021/06/09 12:17:31;;;;;;;3.03;1.92;;;25.90;69.00;;;;;;5055158;28;20068;-73
2021/06/09 12:20:12;;;;;;;4.85;1.80;;;26.00;49.50;;;;;;5054796;28;20036;-73
2021/06/09 12:22:47;;;;;;;1.63;1.52;;;25.90;48.10;;;;;;5055794;28;20045;-72
2021/06/09 12:25:28;;;;;;;4.97;1.85;;;26.00;42.50;;;;;;5053844;28;20132;-72
2021/06/09 12:28:08;;;;;;;2.33;1.70;;;26.10;51.10;;;;;;5053123;28;20045;-72
2021/06/09 12:30:37;;;;;;;1.67;1.58;;;26.00;33.70;;;;;;5054139;28;20124;-73
2021/06/09 12:33:03;;;;;;;1.70;1.60;;;26.10;35.60;;;;;;5053164;28;20072;-73
2021/06/09 12:35:30;;;;;;;1.70;1.60;;;26.00;34.80;;;;;;5053830;28;20048;-73
2021/06/09 12:38:03;;;;;;;2.85;1.70;;;26.00;34.00;;;;;;5053069;28;20123;-72
2021/06/09 12:40:41;;;;;;;1.58;1.48;;;26.00;36.70;;;;;;5054581;28;20516;-73
2021/06/09 12:43:10;;;;;;;1.95;1.63;;;26.10;45.60;;;;;;5054698;28;20124;-73
2021/06/09 12:45:42;;;;;;;3.10;1.50;;;26.20;35.90;;;;;;5053653;28;20124;-73
2021/06/09 12:48:10;;;;;;;4.40;1.80;;;26.30;33.80;;;;;;5054128;28;20102;-72
2021/06/09 12:50:39;;;;;;;3.30;1.98;;;26.30;21.60;;;;;;5054155;28;20119;-72
2021/06/09 12:53:10;;;;;;;2.17;1.70;;;26.30;25.20;;;;;;5054762;28;20094;-72
2021/06/09 12:55:39;;;;;;;2.87;2.03;;;26.40;27.30;;;;;;5055266;28;20047;-72
2021/06/09 12:58:08;;;;;;;2.75;1.40;;;26.30;27.40;;;;;;5055078;28;20291;-72
2021/06/09 13:00:52;;;;;;;5.57;1.50;;;26.20;22.80;;;;;;5055267;28;20071;-72
2021/06/09 13:03:24;;;;;;;3.33;1.80;;;26.20;23.00;;;;;;5055362;28;20045;-72
2021/06/09 13:05:52;;;;;;;2.80;1.70;;;26.30;25.60;;;;;;5055007;28;20118;-73